createdAt,value
2017-12-21T00:00:15.693Z,5.32
2017-12-21T00:02:50.022Z,8.07
2017-12-21T00:05:24.495Z,7.25
2017-12-21T00:07:59.688Z,6.93
2017-12-21T00:10:34.890Z,7.62
2017-12-21T00:13:09.387Z,6.37
2017-12-21T00:15:44.489Z,7.32
2017-12-21T00:18:18.856Z,4.82
2017-12-21T00:20:53.406Z,6.95
2017-12-21T00:23:28.655Z,7.00
2017-12-21T00:26:03.152Z,7.07
2017-12-21T00:28:37.686Z,9.40
2017-12-21T00:31:12.127Z,6.00
2017-12-21T00:33:46.537Z,4.90
2017-12-21T00:36:21.931Z,6.22
2017-12-21T00:38:56.347Z,3.67
2017-12-21T00:41:30.798Z,4.60
2017-12-21T00:44:05.238Z,7.85
2017-12-21T00:46:39.717Z,6.30
2017-12-21T00:49:15.009Z,6.60
2017-12-21T00:51:50.269Z,5.62
2017-12-21T00:54:24.907Z,5.43
2017-12-21T00:56:59.394Z,3.20
2017-12-21T00:59:33.814Z,5.20
2017-12-21T01:02:08.097Z,8.63
2017-12-21T01:04:42.555Z,4.62
2017-12-21T01:07:16.902Z,5.87
2017-12-21T01:09:51.410Z,6.90
2017-12-21T01:12:26.602Z,8.13
2017-12-21T01:15:00.992Z,5.87
2017-12-21T01:17:35.330Z,8.80
2017-12-21T01:20:09.843Z,6.97
2017-12-21T01:22:44.289Z,5.75
2017-12-21T01:25:18.862Z,6.62
2017-12-21T01:27:53.437Z,8.27
2017-12-21T01:30:28.673Z,6.05
2017-12-21T01:33:03.244Z,7.85
2017-12-21T01:35:37.796Z,7.80
2017-12-21T01:38:12.464Z,6.95
2017-12-21T01:40:47.067Z,7.25
2017-12-21T01:43:21.532Z,9.13
2017-12-21T01:45:56.125Z,8.52
2017-12-21T01:48:30.677Z,8.27
2017-12-21T01:51:05.299Z,7.68
2017-12-21T01:53:39.823Z,9.35
2017-12-21T01:56:14.315Z,6.50
2017-12-21T01:58:48.782Z,8.85
2017-12-21T02:01:24.051Z,9.30
2017-12-21T02:04:00.047Z,2.97
2017-12-21T02:06:35.392Z,8.88
2017-12-21T02:09:09.810Z,6.87
2017-12-21T02:11:44.206Z,10.95
2017-12-21T02:14:18.716Z,8.35
2017-12-21T02:16:53.209Z,5.87
2017-12-21T02:19:28.104Z,4.70
2017-12-21T02:22:02.573Z,7.22
2017-12-21T02:24:36.849Z,4.10
2017-12-21T02:27:11.302Z,10.07
2017-12-21T02:29:45.693Z,5.15
2017-12-21T02:32:20.047Z,9.10
2017-12-21T02:34:55.272Z,5.03
2017-12-21T02:40:43.591Z,8.95
2017-12-21T02:43:18.001Z,11.52
2017-12-21T02:45:52.354Z,9.20
2017-12-21T02:48:27.570Z,8.88
2017-12-21T02:51:01.915Z,11.32
2017-12-21T02:53:36.365Z,7.57
2017-12-21T02:56:10.884Z,8.77
2017-12-21T02:58:45.240Z,10.15
2017-12-21T03:01:19.662Z,9.55
2017-12-21T03:03:54.208Z,12.00
2017-12-21T03:06:28.602Z,12.45
2017-12-21T03:09:03.040Z,13.85
2017-12-21T03:11:37.604Z,10.35
2017-12-21T03:14:12.056Z,8.15
2017-12-21T03:16:46.593Z,10.18
2017-12-21T03:19:21.881Z,10.05
2017-12-21T03:21:56.367Z,9.88
2017-12-21T03:24:30.864Z,10.07
2017-12-21T03:27:05.259Z,5.15
2017-12-21T03:29:39.810Z,6.90
2017-12-21T03:32:14.326Z,5.55
2017-12-21T03:34:49.537Z,6.70
2017-12-21T03:37:23.858Z,6.75
2017-12-21T03:39:59.114Z,5.22
2017-12-21T03:42:33.541Z,3.75
2017-12-21T03:45:08.763Z,4.70
2017-12-21T03:47:43.164Z,6.85
2017-12-21T03:50:17.533Z,5.03
2017-12-21T03:52:51.923Z,5.78
2017-12-21T03:55:26.424Z,6.28
2017-12-21T03:58:01.588Z,8.00
2017-12-21T04:00:36.129Z,7.80
2017-12-21T04:03:10.451Z,7.07
2017-12-21T04:05:44.847Z,8.93
2017-12-21T04:08:19.300Z,7.45
2017-12-21T04:10:53.781Z,7.05
2017-12-21T04:13:28.191Z,5.18
2017-12-21T04:16:02.561Z,8.82
2017-12-21T04:18:37.707Z,8.63
2017-12-21T04:21:12.193Z,5.15
2017-12-21T04:23:46.516Z,5.78
2017-12-21T04:26:21.633Z,8.73
2017-12-21T04:28:56.187Z,9.52
2017-12-21T04:31:31.477Z,9.18
2017-12-21T04:34:05.811Z,9.48
2017-12-21T04:36:40.261Z,9.13
2017-12-21T04:39:15.487Z,9.88
2017-12-21T04:41:49.897Z,7.12
2017-12-21T04:44:24.368Z,8.43
2017-12-21T04:46:58.853Z,7.12
2017-12-21T04:49:33.947Z,7.22
2017-12-21T04:52:08.306Z,8.98
2017-12-21T04:54:42.707Z,8.77
2017-12-21T04:57:17.310Z,6.95
2017-12-21T04:59:51.752Z,6.87
2017-12-21T05:02:27.005Z,8.25
2017-12-21T05:05:01.553Z,7.72
2017-12-21T05:07:35.908Z,10.07
2017-12-21T05:10:10.379Z,5.60
2017-12-21T05:12:44.867Z,6.78
2017-12-21T05:15:19.220Z,6.93
2017-12-21T05:17:54.314Z,5.68
2017-12-21T05:20:28.779Z,5.10
2017-12-21T05:23:03.193Z,4.93
2017-12-21T05:25:37.706Z,3.87
2017-12-21T05:28:12.215Z,4.78
2017-12-21T05:30:46.621Z,4.43
2017-12-21T05:33:20.984Z,5.10
2017-12-21T05:35:55.460Z,3.97
2017-12-21T05:38:29.868Z,3.60
2017-12-21T05:41:04.275Z,5.37
2017-12-21T05:43:38.867Z,4.82
2017-12-21T05:46:13.361Z,3.72
2017-12-21T05:48:48.476Z,4.87
2017-12-21T05:51:22.983Z,5.40
2017-12-21T05:56:38.269Z,3.67
2017-12-21T05:59:13.528Z,5.12
2017-12-21T06:01:47.934Z,4.22
2017-12-21T06:04:22.234Z,6.10
2017-12-21T06:06:56.598Z,5.97
2017-12-21T06:09:31.170Z,5.68
2017-12-21T06:12:05.610Z,5.30
2017-12-21T06:14:39.959Z,4.65
2017-12-21T06:17:14.441Z,5.30
2017-12-21T06:19:49.710Z,6.22
2017-12-21T06:22:24.045Z,6.50
2017-12-21T06:24:58.365Z,6.65
2017-12-21T06:27:32.833Z,7.20
2017-12-21T06:30:07.311Z,6.53
2017-12-21T06:32:41.619Z,3.92
2017-12-21T06:35:15.941Z,5.45
2017-12-21T06:37:50.359Z,7.12
2017-12-21T06:40:24.745Z,6.43
2017-12-21T06:42:59.243Z,6.37
2017-12-21T06:45:33.676Z,4.35
2017-12-21T06:48:08.003Z,6.93
2017-12-21T06:50:42.361Z,6.57
2017-12-21T06:53:17.518Z,7.00
2017-12-21T06:55:52.731Z,6.87
2017-12-21T06:58:27.154Z,6.07
2017-12-21T07:01:01.464Z,6.28
2017-12-21T07:03:35.996Z,6.95
2017-12-21T07:06:11.190Z,3.65
2017-12-21T07:08:45.654Z,5.07
2017-12-21T07:11:20.388Z,5.00
2017-12-21T07:13:54.792Z,4.32
2017-12-21T07:16:29.170Z,4.32
2017-12-21T07:19:03.553Z,7.25
2017-12-21T07:21:38.016Z,5.53
2017-12-21T07:24:12.439Z,4.50
2017-12-21T07:26:47.573Z,4.90
2017-12-21T07:29:21.938Z,3.78
2017-12-21T07:31:56.350Z,3.25
2017-12-21T07:34:30.838Z,5.87
2017-12-21T07:37:06.007Z,5.90
2017-12-21T07:39:40.518Z,5.72
2017-12-21T07:42:15.040Z,5.12
2017-12-21T07:44:50.378Z,5.20
2017-12-21T07:47:24.880Z,6.37
2017-12-21T07:49:59.514Z,4.37
2017-12-21T07:52:33.934Z,5.93
2017-12-21T07:55:08.445Z,5.82
2017-12-21T07:57:42.774Z,6.60
2017-12-21T08:00:17.299Z,4.80
2017-12-21T08:02:51.697Z,5.18
2017-12-21T08:05:26.038Z,4.55
2017-12-21T08:08:00.458Z,5.07
2017-12-21T08:10:34.757Z,6.18
2017-12-21T08:13:09.347Z,5.30
2017-12-21T08:15:43.819Z,6.12
2017-12-21T08:18:18.265Z,3.90
2017-12-21T08:20:52.730Z,4.82
2017-12-21T08:23:27.240Z,5.28
2017-12-21T08:26:01.698Z,6.50
2017-12-21T08:28:36.086Z,3.92
2017-12-21T08:31:10.534Z,4.90
2017-12-21T08:33:45.046Z,3.30
2017-12-21T08:36:19.449Z,2.92
2017-12-21T08:38:53.885Z,6.25
2017-12-21T08:41:28.217Z,6.47
2017-12-21T08:44:02.533Z,5.97
2017-12-21T08:46:36.861Z,6.82
2017-12-21T08:49:11.412Z,4.07
2017-12-21T08:51:45.809Z,4.20
2017-12-21T08:54:20.282Z,6.97
2017-12-21T08:56:54.611Z,5.72
2017-12-21T08:59:29.064Z,9.57
2017-12-21T09:02:03.549Z,7.55
2017-12-21T09:04:38.073Z,6.05
2017-12-21T09:07:12.514Z,6.37
2017-12-21T09:09:46.964Z,6.70
2017-12-21T09:12:21.350Z,5.90
2017-12-21T09:14:55.674Z,6.43
2017-12-21T09:17:30.039Z,4.72
2017-12-21T09:20:04.542Z,4.55
2017-12-21T09:22:39.054Z,6.53
2017-12-21T09:25:13.508Z,5.18
2017-12-21T09:27:47.856Z,5.72
2017-12-21T09:30:22.368Z,5.82
2017-12-21T09:32:56.848Z,6.05
2017-12-21T09:35:31.332Z,5.18
2017-12-21T09:38:05.759Z,6.15
2017-12-21T09:40:40.128Z,8.48
2017-12-21T09:43:14.507Z,5.60
2017-12-21T09:45:49.003Z,4.65
2017-12-21T09:48:23.395Z,6.28
2017-12-21T09:50:57.951Z,5.28
2017-12-21T09:53:32.371Z,6.70
2017-12-21T09:56:06.907Z,6.95
2017-12-21T09:58:41.449Z,5.03
2017-12-21T10:01:15.906Z,6.18
2017-12-21T10:03:50.358Z,5.72
2017-12-21T10:06:24.850Z,5.25
2017-12-21T10:08:59.432Z,4.03
2017-12-21T10:11:35.934Z,6.00
2017-12-21T10:14:11.623Z,5.55
2017-12-21T10:16:46.155Z,5.62
2017-12-21T10:19:20.685Z,5.82
2017-12-21T10:21:55.227Z,6.20
2017-12-21T10:24:29.597Z,6.25
2017-12-21T10:27:04.064Z,6.10
2017-12-21T10:29:38.505Z,5.45
2017-12-21T10:32:12.872Z,4.80
2017-12-21T10:34:47.251Z,5.80
2017-12-21T10:37:21.550Z,5.15
2017-12-21T10:39:55.903Z,13.82
2017-12-21T10:42:31.016Z,4.03
2017-12-21T10:45:05.596Z,4.00
2017-12-21T10:47:40.057Z,5.25
2017-12-21T10:50:14.617Z,4.72
2017-12-21T10:52:49.157Z,2.45
2017-12-21T10:55:23.629Z,4.50
2017-12-21T10:57:58.067Z,3.45
2017-12-21T11:00:32.399Z,2.97
2017-12-21T11:03:06.783Z,2.10
2017-12-21T11:05:41.874Z,1.77
2017-12-21T11:08:16.373Z,5.07
2017-12-21T11:10:50.774Z,4.40
2017-12-21T11:13:25.255Z,2.45
2017-12-21T11:15:59.707Z,3.47
2017-12-21T11:18:34.221Z,3.20
2017-12-21T11:21:08.585Z,3.15
2017-12-21T11:23:43.074Z,3.28
2017-12-21T11:26:17.503Z,2.33
2017-12-21T11:28:52.647Z,3.92
2017-12-21T11:31:27.117Z,2.15
2017-12-21T11:34:01.570Z,3.30
2017-12-21T11:36:36.097Z,2.80
2017-12-21T11:39:10.511Z,2.35
2017-12-21T11:41:45.019Z,2.60
2017-12-21T11:44:19.374Z,2.97
2017-12-21T11:46:53.676Z,4.55
2017-12-21T11:49:28.098Z,4.50
2017-12-21T11:52:02.630Z,2.72
2017-12-21T11:54:36.939Z,1.92
2017-12-21T11:57:11.473Z,1.27
2017-12-21T11:59:46.756Z,2.37
2017-12-21T12:02:21.277Z,3.60
2017-12-21T12:04:55.832Z,2.47
2017-12-21T12:07:30.231Z,2.75
2017-12-21T12:10:04.550Z,1.87
2017-12-21T12:12:38.990Z,2.50
2017-12-21T12:15:13.513Z,2.45
2017-12-21T12:17:47.946Z,1.75
2017-12-21T12:20:22.421Z,1.60
2017-12-21T12:22:56.875Z,3.22
2017-12-21T12:25:31.387Z,3.50
2017-12-21T12:28:05.779Z,3.75
2017-12-21T12:30:40.209Z,1.98
2017-12-21T12:33:14.693Z,3.55
2017-12-21T12:35:49.182Z,3.72
2017-12-21T12:38:24.297Z,2.37
2017-12-21T12:40:58.744Z,1.90
2017-12-21T12:43:33.050Z,2.20
2017-12-21T12:46:07.546Z,1.90
2017-12-21T12:48:42.032Z,3.70
2017-12-21T12:51:16.487Z,2.95
2017-12-21T12:53:50.944Z,1.90
2017-12-21T12:56:25.485Z,1.85
2017-12-21T12:58:59.951Z,2.58
2017-12-21T13:01:34.416Z,3.12
2017-12-21T13:04:08.991Z,2.75
2017-12-21T13:06:43.442Z,3.10
2017-12-21T13:09:17.758Z,3.80
2017-12-21T13:11:52.240Z,2.90
2017-12-21T13:14:27.483Z,1.33
2017-12-21T13:17:01.843Z,1.37
2017-12-21T13:19:36.300Z,2.53
2017-12-21T13:22:10.673Z,2.75
2017-12-21T13:24:45.048Z,2.80
2017-12-21T13:27:19.399Z,2.42
2017-12-21T13:29:54.525Z,2.60
2017-12-21T13:32:28.823Z,2.10
2017-12-21T13:35:04.100Z,2.58
2017-12-21T13:37:38.462Z,1.40
2017-12-21T13:40:12.809Z,2.85
2017-12-21T13:42:47.277Z,2.78
2017-12-21T13:45:21.712Z,2.17
2017-12-21T13:47:56.208Z,1.60
2017-12-21T13:50:30.688Z,1.40
2017-12-21T13:53:05.912Z,2.60
2017-12-21T13:55:40.463Z,1.48
2017-12-21T13:58:14.910Z,2.65
2017-12-21T14:00:49.323Z,2.30
2017-12-21T14:03:23.727Z,2.12
2017-12-21T14:05:58.150Z,3.62
2017-12-21T14:08:32.607Z,3.17
2017-12-21T14:11:06.957Z,2.97
2017-12-21T14:13:42.244Z,2.60
2017-12-21T14:16:17.378Z,4.68
2017-12-21T14:18:51.867Z,2.58
2017-12-21T14:21:26.335Z,2.58
2017-12-21T14:24:01.643Z,3.00
2017-12-21T14:26:36.090Z,2.85
2017-12-21T14:29:10.580Z,3.37
2017-12-21T14:31:44.896Z,3.00
2017-12-21T14:34:19.381Z,2.58
2017-12-21T14:36:53.877Z,2.78
2017-12-21T14:39:28.384Z,2.30
2017-12-21T14:42:02.770Z,2.78
2017-12-21T14:44:37.242Z,2.50
2017-12-21T14:47:12.459Z,2.08
2017-12-21T14:49:47.684Z,2.47
2017-12-21T14:52:22.114Z,2.65
2017-12-21T14:54:56.560Z,2.08
2017-12-21T14:57:31.773Z,2.42
2017-12-21T15:00:06.222Z,3.10
2017-12-21T15:02:40.675Z,3.75
2017-12-21T15:05:15.056Z,3.33
2017-12-21T15:07:49.497Z,3.95
2017-12-21T15:10:23.975Z,4.50
2017-12-21T15:12:58.440Z,4.47
2017-12-21T15:15:33.013Z,4.80
2017-12-21T15:18:07.423Z,4.50
2017-12-21T15:20:41.818Z,3.47
2017-12-21T15:23:16.252Z,5.15
2017-12-21T15:25:50.756Z,3.92
2017-12-21T15:28:25.148Z,4.28
2017-12-21T15:30:59.522Z,2.97
2017-12-21T15:33:34.055Z,4.95
2017-12-21T15:36:08.561Z,4.55
2017-12-21T15:38:43.039Z,4.72
2017-12-21T15:41:17.508Z,5.12
2017-12-21T15:43:51.942Z,4.43
2017-12-21T15:46:26.392Z,6.68
2017-12-21T15:49:00.864Z,6.32
2017-12-21T15:51:35.166Z,6.07
2017-12-21T15:54:09.624Z,5.30
2017-12-21T15:56:44.004Z,5.68
2017-12-21T15:59:18.466Z,6.30
2017-12-21T16:01:52.908Z,3.85
2017-12-21T16:04:27.310Z,2.95
2017-12-21T16:07:01.813Z,5.35
2017-12-21T16:09:36.244Z,4.32
2017-12-21T16:12:10.879Z,7.47
2017-12-21T16:14:45.331Z,4.22
2017-12-21T16:17:19.869Z,5.72
2017-12-21T16:19:54.183Z,4.10
2017-12-21T16:22:28.748Z,5.55
2017-12-21T16:25:03.256Z,4.78
2017-12-21T16:27:37.763Z,3.67
2017-12-21T16:30:12.214Z,4.62
2017-12-21T16:32:46.487Z,3.35
2017-12-21T16:35:20.792Z,6.75
2017-12-21T16:37:55.339Z,4.97
2017-12-21T16:40:29.821Z,5.50
2017-12-21T16:43:04.152Z,2.35
2017-12-21T16:45:38.539Z,6.12
2017-12-21T16:48:13.206Z,2.35
2017-12-21T16:50:47.802Z,5.85
2017-12-21T16:53:22.210Z,6.53
2017-12-21T16:55:56.667Z,5.82
2017-12-21T16:58:31.186Z,4.70
2017-12-21T17:01:05.609Z,5.50
2017-12-21T17:03:40.051Z,5.47
2017-12-21T17:06:14.344Z,4.50
2017-12-21T17:08:48.698Z,4.35
2017-12-21T17:11:23.201Z,5.22
2017-12-21T17:13:58.347Z,4.78
2017-12-21T17:16:32.896Z,3.20
2017-12-21T17:19:08.123Z,5.35
2017-12-21T17:21:43.262Z,6.45
2017-12-21T17:24:18.543Z,4.82
2017-12-21T17:26:52.976Z,4.05
2017-12-21T17:29:27.464Z,6.97
2017-12-21T17:32:01.860Z,6.87
2017-12-21T17:34:37.116Z,5.25
2017-12-21T17:37:11.464Z,5.62
2017-12-21T17:39:46.090Z,4.22
2017-12-21T17:42:20.471Z,5.87
2017-12-21T17:44:54.933Z,7.40
2017-12-21T17:47:29.517Z,6.18
2017-12-21T17:50:04.041Z,8.25
2017-12-21T17:52:38.567Z,7.12
2017-12-21T17:55:12.939Z,6.28
2017-12-21T17:57:47.417Z,4.55
2017-12-21T18:00:21.787Z,6.78
2017-12-21T18:02:56.273Z,8.80
2017-12-21T18:05:30.731Z,5.93
2017-12-21T18:08:05.184Z,4.65
2017-12-21T18:10:40.283Z,6.53
2017-12-21T18:13:15.959Z,5.82
2017-12-21T18:15:51.086Z,5.53
2017-12-21T18:18:25.468Z,7.95
2017-12-21T18:21:00.004Z,6.37
2017-12-21T18:23:34.535Z,9.32
2017-12-21T18:26:09.083Z,7.20
2017-12-21T18:28:43.605Z,8.85
2017-12-21T18:31:18.221Z,5.10
2017-12-21T18:33:53.359Z,8.02
2017-12-21T18:36:27.698Z,9.80
2017-12-21T18:39:02.139Z,7.03
2017-12-21T18:41:36.584Z,6.80
2017-12-21T18:44:11.744Z,8.05
2017-12-21T18:46:46.252Z,3.62
2017-12-21T18:49:21.483Z,7.18
2017-12-21T18:51:56.744Z,7.68
2017-12-21T18:54:31.258Z,6.93
2017-12-21T18:57:05.750Z,7.57
2017-12-21T18:59:40.836Z,6.30
2017-12-21T19:02:15.359Z,8.70
2017-12-21T19:04:49.826Z,5.28
2017-12-21T19:07:24.186Z,5.62
2017-12-21T19:09:59.470Z,5.43
2017-12-21T19:12:34.038Z,7.05
2017-12-21T19:15:09.628Z,8.20
2017-12-21T19:17:44.287Z,5.87
2017-12-21T19:20:18.632Z,4.62
2017-12-21T19:22:53.161Z,4.90
2017-12-21T19:25:28.363Z,8.48
2017-12-21T19:28:03.622Z,7.05
2017-12-21T19:30:38.004Z,6.20
2017-12-21T19:33:13.306Z,4.37
2017-12-21T19:35:47.608Z,7.53
2017-12-21T19:38:22.100Z,3.10
2017-12-21T19:40:56.617Z,7.57
2017-12-21T19:43:31.747Z,5.87
2017-12-21T19:46:06.715Z,5.65
2017-12-21T19:48:41.241Z,8.10
2017-12-21T19:51:15.690Z,9.70
2017-12-21T19:53:50.301Z,7.28
2017-12-21T19:56:24.861Z,3.90
2017-12-21T19:58:59.322Z,5.60
2017-12-21T20:01:34.412Z,3.50
2017-12-21T20:04:08.809Z,7.62
2017-12-21T20:06:43.278Z,5.20
2017-12-21T20:09:17.738Z,5.43
2017-12-21T20:11:52.348Z,7.60
2017-12-21T20:14:26.769Z,6.65
2017-12-21T20:17:01.159Z,8.52
2017-12-21T20:19:35.478Z,8.75
2017-12-21T20:22:09.917Z,4.95
2017-12-21T20:24:44.513Z,7.05
2017-12-21T20:27:18.988Z,5.07
2017-12-21T20:29:54.172Z,8.25
2017-12-21T20:32:28.603Z,7.45
2017-12-21T20:35:02.950Z,5.10
2017-12-21T20:37:37.368Z,8.18
2017-12-21T20:40:11.872Z,6.45
2017-12-21T20:42:46.427Z,3.67
2017-12-21T20:45:20.990Z,5.45
2017-12-21T20:47:55.525Z,9.40
2017-12-21T20:50:29.922Z,9.85
2017-12-21T20:53:05.355Z,7.95
2017-12-21T20:55:39.843Z,7.78
2017-12-21T20:58:15.037Z,8.18
2017-12-21T21:00:49.392Z,7.22
2017-12-21T21:03:23.911Z,5.85
2017-12-21T21:05:58.434Z,8.32
2017-12-21T21:08:32.954Z,8.00
2017-12-21T21:11:07.486Z,6.03
2017-12-21T21:13:41.859Z,9.65
2017-12-21T21:16:16.283Z,5.20
2017-12-21T21:18:50.802Z,3.10
2017-12-21T21:21:25.296Z,8.95
2017-12-21T21:23:59.897Z,8.73
2017-12-21T21:26:34.440Z,9.70
2017-12-21T21:29:08.920Z,6.20
2017-12-21T21:31:43.392Z,5.97
2017-12-21T21:34:17.844Z,8.80
2017-12-21T21:36:52.336Z,8.70
2017-12-21T21:39:27.349Z,6.20
2017-12-21T21:42:01.895Z,6.03
2017-12-21T21:44:36.336Z,5.75
2017-12-21T21:47:10.725Z,7.15
2017-12-21T21:49:45.187Z,8.10
2017-12-21T21:52:19.716Z,7.90
2017-12-21T21:54:54.902Z,6.35
2017-12-21T21:57:29.510Z,7.20
2017-12-21T22:00:04.080Z,6.07
2017-12-21T22:02:38.482Z,5.60
2017-12-21T22:05:13.057Z,5.70
2017-12-21T22:07:47.467Z,6.78
2017-12-21T22:10:21.949Z,6.18
2017-12-21T22:12:57.278Z,6.45
2017-12-21T22:15:31.699Z,5.87
2017-12-21T22:18:06.060Z,4.00
2017-12-21T22:20:40.536Z,5.12
2017-12-21T22:23:15.232Z,5.12
2017-12-21T22:25:49.698Z,3.42
2017-12-21T22:28:24.229Z,4.10
2017-12-21T22:30:58.882Z,3.60
2017-12-21T22:33:33.191Z,4.45
2017-12-21T22:36:07.559Z,3.20
2017-12-21T22:38:41.924Z,6.53
2017-12-21T22:41:16.388Z,4.05
2017-12-21T22:43:50.933Z,4.62
2017-12-21T22:46:25.344Z,5.47
2017-12-21T22:48:59.842Z,3.03
2017-12-21T22:51:34.463Z,2.33
2017-12-21T22:54:08.992Z,3.83
2017-12-21T22:56:43.375Z,3.25
2017-12-21T22:59:18.622Z,1.83
2017-12-21T23:01:52.915Z,3.50
2017-12-21T23:04:27.296Z,3.47
2017-12-21T23:07:02.514Z,2.62
2017-12-21T23:09:36.868Z,2.10
2017-12-21T23:12:11.376Z,1.52
2017-12-21T23:14:45.847Z,3.12
2017-12-21T23:17:20.349Z,2.03
2017-12-21T23:19:54.851Z,2.40
2017-12-21T23:22:29.173Z,2.00
2017-12-21T23:25:03.530Z,3.70
2017-12-21T23:27:38.107Z,1.33
2017-12-21T23:30:12.460Z,3.00
2017-12-21T23:32:46.930Z,2.15
2017-12-21T23:35:21.413Z,2.40
2017-12-21T23:37:55.762Z,3.08
2017-12-21T23:40:30.344Z,3.45
2017-12-21T23:43:05.548Z,3.58
2017-12-21T23:45:40.118Z,3.25
2017-12-21T23:48:14.602Z,2.37
2017-12-21T23:50:49.840Z,3.83
2017-12-21T23:53:24.314Z,3.25
2017-12-21T23:55:58.740Z,2.83
2017-12-21T23:58:33.075Z,3.00
